sensor_id;sensor_type;location;lat;lon;timestamp;temperature;humidity
21807;DHT22;11065;50.786;7.840;2023-02-27T00:02:11;1.00;42.30
21807;DHT22;11065;50.786;7.840;2023-02-27T00:04:39;1.00;42.40
21807;DHT22;11065;50.786;7.840;2023-02-27T00:07:07;0.90;42.40
21807;DHT22;11065;50.786;7.840;2023-02-27T00:09:35;0.90;42.40
21807;DHT22;11065;50.786;7.840;2023-02-27T00:12:03;0.90;42.50
21807;DHT22;11065;50.786;7.840;2023-02-27T00:14:32;0.90;42.50
21807;DHT22;11065;50.786;7.840;2023-02-27T00:17:00;0.80;42.40
21807;DHT22;11065;50.786;7.840;2023-02-27T00:19:29;0.80;42.40
21807;DHT22;11065;50.786;7.840;2023-02-27T00:21:57;0.80;42.50
21807;DHT22;11065;50.786;7.840;2023-02-27T00:45:25;0.50;42.50
21807;DHT22;11065;50.786;7.840;2023-02-27T00:47:53;0.40;42.30
21807;DHT22;11065;50.786;7.840;2023-02-27T00:50:22;0.40;42.40
21807;DHT22;11065;50.786;7.840;2023-02-27T00:52:50;0.40;42.60
21807;DHT22;11065;50.786;7.840;2023-02-27T00:55:18;0.40;42.70
21807;DHT22;11065;50.786;7.840;2023-02-27T00:57:46;0.40;42.70
21807;DHT22;11065;50.786;7.840;2023-02-27T01:00:15;0.30;42.80
21807;DHT22;11065;50.786;7.840;2023-02-27T01:02:44;0.30;42.80
21807;DHT22;11065;50.786;7.840;2023-02-27T01:05:13;0.30;42.90
21807;DHT22;11065;50.786;7.840;2023-02-27T01:07:41;0.30;42.90
21807;DHT22;11065;50.786;7.840;2023-02-27T01:10:10;0.30;42.90
21807;DHT22;11065;50.786;7.840;2023-02-27T01:12:38;0.20;42.90
21807;DHT22;11065;50.786;7.840;2023-02-27T01:32:12;0.00;42.80
21807;DHT22;11065;50.786;7.840;2023-02-27T01:34:40;0.00;42.70
21807;DHT22;11065;50.786;7.840;2023-02-27T01:37:08;0.00;42.80
21807;DHT22;11065;50.786;7.840;2023-02-27T01:39:36;0.00;43.00
21807;DHT22;11065;50.786;7.840;2023-02-27T01:42:08;-0.10;43.00
21807;DHT22;11065;50.786;7.840;2023-02-27T01:45:08;-0.10;43.60
21807;DHT22;11065;50.786;7.840;2023-02-27T01:47:43;-0.10;43.30
21807;DHT22;11065;50.786;7.840;2023-02-27T01:50:13;-0.20;43.20
21807;DHT22;11065;50.786;7.840;2023-02-27T01:52:43;-0.20;43.20
21807;DHT22;11065;50.786;7.840;2023-02-27T01:55:13;-0.20;43.30
21807;DHT22;11065;50.786;7.840;2023-02-27T01:57:42;-0.20;43.30
21807;DHT22;11065;50.786;7.840;2023-02-27T02:00:13;-0.20;43.30
21807;DHT22;11065;50.786;7.840;2023-02-27T02:27:29;-0.50;43.30
21807;DHT22;11065;50.786;7.840;2023-02-27T02:36:39;-0.50;43.70
21807;DHT22;11065;50.786;7.840;2023-02-27T02:39:35;-0.60;43.70
21807;DHT22;11065;50.786;7.840;2023-02-27T02:42:12;-0.60;43.70
21807;DHT22;11065;50.786;7.840;2023-02-27T02:44:50;-0.60;43.60
21807;DHT22;11065;50.786;7.840;2023-02-27T02:47:26;-0.60;43.70
21807;DHT22;11065;50.786;7.840;2023-02-27T02:49:58;-0.70;43.60
21807;DHT22;11065;50.786;7.840;2023-02-27T03:09:20;-0.80;43.60
21807;DHT22;11065;50.786;7.840;2023-02-27T03:11:51;-0.80;43.50
21807;DHT22;11065;50.786;7.840;2023-02-27T03:14:23;-0.90;43.50
21807;DHT22;11065;50.786;7.840;2023-02-27T03:16:55;-0.90;43.70
21807;DHT22;11065;50.786;7.840;2023-02-27T03:19:28;-0.90;43.80
21807;DHT22;11065;50.786;7.840;2023-02-27T03:22:00;-0.90;43.80
21807;DHT22;11065;50.786;7.840;2023-02-27T03:24:34;-0.90;43.90
21807;DHT22;11065;50.786;7.840;2023-02-27T03:27:07;-0.90;43.90
21807;DHT22;11065;50.786;7.840;2023-02-27T03:29:40;-0.90;44.00
21807;DHT22;11065;50.786;7.840;2023-02-27T03:32:15;-0.90;44.00
21807;DHT22;11065;50.786;7.840;2023-02-27T03:34:45;-0.90;43.90
21807;DHT22;11065;50.786;7.840;2023-02-27T03:37:20;-0.90;44.00
21807;DHT22;11065;50.786;7.840;2023-02-27T03:39:53;-0.90;44.10
21807;DHT22;11065;50.786;7.840;2023-02-27T03:42:29;-1.00;44.10
21807;DHT22;11065;50.786;7.840;2023-02-27T03:45:19;-1.00;44.10
21807;DHT22;11065;50.786;7.840;2023-02-27T03:47:51;-1.00;44.10
21807;DHT22;11065;50.786;7.840;2023-02-27T03:50:19;-1.00;44.10
21807;DHT22;11065;50.786;7.840;2023-02-27T03:52:48;-1.00;44.10
21807;DHT22;11065;50.786;7.840;2023-02-27T03:55:20;-1.00;44.20
21807;DHT22;11065;50.786;7.840;2023-02-27T03:57:50;-1.00;44.20
21807;DHT22;11065;50.786;7.840;2023-02-27T04:00:20;-1.00;44.20
21807;DHT22;11065;50.786;7.840;2023-02-27T04:02:50;-1.10;44.10
21807;DHT22;11065;50.786;7.840;2023-02-27T04:05:23;-1.00;44.20
21807;DHT22;11065;50.786;7.840;2023-02-27T04:08:12;-1.10;44.10
21807;DHT22;11065;50.786;7.840;2023-02-27T04:11:05;-1.10;44.20
21807;DHT22;11065;50.786;7.840;2023-02-27T04:13:50;-1.10;44.20
21807;DHT22;11065;50.786;7.840;2023-02-27T04:16:46;-1.10;44.20
21807;DHT22;11065;50.786;7.840;2023-02-27T04:19:27;-1.20;44.20
21807;DHT22;11065;50.786;7.840;2023-02-27T04:22:05;-1.20;44.10
21807;DHT22;11065;50.786;7.840;2023-02-27T04:24:41;-1.20;44.10
21807;DHT22;11065;50.786;7.840;2023-02-27T04:27:20;-1.20;44.20
21807;DHT22;11065;50.786;7.840;2023-02-27T04:29:53;-1.30;44.20
21807;DHT22;11065;50.786;7.840;2023-02-27T04:32:30;-1.30;44.20
21807;DHT22;11065;50.786;7.840;2023-02-27T04:35:05;-1.30;44.30
21807;DHT22;11065;50.786;7.840;2023-02-27T04:37:40;-1.30;44.30
21807;DHT22;11065;50.786;7.840;2023-02-27T04:40:13;-1.30;44.30
21807;DHT22;11065;50.786;7.840;2023-02-27T04:42:45;-1.30;44.40
21807;DHT22;11065;50.786;7.840;2023-02-27T04:45:17;-1.30;44.40
21807;DHT22;11065;50.786;7.840;2023-02-27T04:47:48;-1.30;44.40
21807;DHT22;11065;50.786;7.840;2023-02-27T04:50:24;-1.30;44.40
21807;DHT22;11065;50.786;7.840;2023-02-27T04:52:57;-1.40;44.30
21807;DHT22;11065;50.786;7.840;2023-02-27T04:55:31;-1.40;44.40
21807;DHT22;11065;50.786;7.840;2023-02-27T04:58:04;-1.40;44.40
21807;DHT22;11065;50.786;7.840;2023-02-27T05:00:36;-1.40;44.30
21807;DHT22;11065;50.786;7.840;2023-02-27T05:03:09;-1.40;44.30
21807;DHT22;11065;50.786;7.840;2023-02-27T05:05:41;-1.40;44.40
21807;DHT22;11065;50.786;7.840;2023-02-27T05:08:15;-1.50;44.40
21807;DHT22;11065;50.786;7.840;2023-02-27T05:10:48;-1.50;44.40
21807;DHT22;11065;50.786;7.840;2023-02-27T05:13:20;-1.50;44.40
21807;DHT22;11065;50.786;7.840;2023-02-27T05:15:52;-1.50;44.90
21807;DHT22;11065;50.786;7.840;2023-02-27T05:18:23;-1.50;44.60
21807;DHT22;11065;50.786;7.840;2023-02-27T05:20:56;-1.50;44.60
21807;DHT22;11065;50.786;7.840;2023-02-27T05:23:36;-1.60;44.60
21807;DHT22;11065;50.786;7.840;2023-02-27T05:26:13;-1.60;44.70
21807;DHT22;11065;50.786;7.840;2023-02-27T05:28:50;-1.60;44.70
21807;DHT22;11065;50.786;7.840;2023-02-27T05:31:27;-1.60;44.70
21807;DHT22;11065;50.786;7.840;2023-02-27T05:34:04;-1.60;44.70
21807;DHT22;11065;50.786;7.840;2023-02-27T05:36:37;-1.60;44.80
21807;DHT22;11065;50.786;7.840;2023-02-27T05:39:09;-1.60;44.80
21807;DHT22;11065;50.786;7.840;2023-02-27T05:41:41;-1.60;44.80
21807;DHT22;11065;50.786;7.840;2023-02-27T05:44:15;-1.60;44.80
21807;DHT22;11065;50.786;7.840;2023-02-27T05:46:48;-1.60;44.80
21807;DHT22;11065;50.786;7.840;2023-02-27T05:49:22;-1.60;44.80
21807;DHT22;11065;50.786;7.840;2023-02-27T05:51:52;-1.60;44.80
21807;DHT22;11065;50.786;7.840;2023-02-27T05:54:28;-1.60;44.80
21807;DHT22;11065;50.786;7.840;2023-02-27T05:56:59;-1.70;44.70
21807;DHT22;11065;50.786;7.840;2023-02-27T05:59:34;-1.70;44.70
21807;DHT22;11065;50.786;7.840;2023-02-27T06:02:05;-1.70;44.70
21807;DHT22;11065;50.786;7.840;2023-02-27T06:04:33;-1.70;44.70
21807;DHT22;11065;50.786;7.840;2023-02-27T06:07:01;-1.70;44.70
21807;DHT22;11065;50.786;7.840;2023-02-27T06:09:34;-1.70;44.80
21807;DHT22;11065;50.786;7.840;2023-02-27T06:12:02;-1.70;44.80
21807;DHT22;11065;50.786;7.840;2023-02-27T06:14:31;-1.70;44.80
21807;DHT22;11065;50.786;7.840;2023-02-27T06:16:59;-1.80;44.80
21807;DHT22;11065;50.786;7.840;2023-02-27T06:19:27;-1.80;44.80
21807;DHT22;11065;50.786;7.840;2023-02-27T06:21:55;-1.80;44.90
21807;DHT22;11065;50.786;7.840;2023-02-27T06:24:23;-1.80;44.90
21807;DHT22;11065;50.786;7.840;2023-02-27T06:26:52;-1.80;45.00
21807;DHT22;11065;50.786;7.840;2023-02-27T06:29:20;-1.80;45.00
21807;DHT22;11065;50.786;7.840;2023-02-27T06:31:50;-1.80;45.00
21807;DHT22;11065;50.786;7.840;2023-02-27T06:34:18;-1.80;45.00
21807;DHT22;11065;50.786;7.840;2023-02-27T06:36:46;-1.80;45.00
21807;DHT22;11065;50.786;7.840;2023-02-27T06:39:14;-1.80;45.00
21807;DHT22;11065;50.786;7.840;2023-02-27T06:41:42;-1.80;45.10
21807;DHT22;11065;50.786;7.840;2023-02-27T06:44:10;-1.80;45.10
21807;DHT22;11065;50.786;7.840;2023-02-27T06:46:38;-1.80;45.10
21807;DHT22;11065;50.786;7.840;2023-02-27T06:49:08;-1.80;45.10
21807;DHT22;11065;50.786;7.840;2023-02-27T06:51:36;-1.80;45.10
21807;DHT22;11065;50.786;7.840;2023-02-27T06:54:04;-1.80;45.10
21807;DHT22;11065;50.786;7.840;2023-02-27T06:56:33;-1.80;45.10
21807;DHT22;11065;50.786;7.840;2023-02-27T06:59:01;-1.80;45.10
21807;DHT22;11065;50.786;7.840;2023-02-27T07:01:29;-1.70;45.20
21807;DHT22;11065;50.786;7.840;2023-02-27T07:03:57;-1.80;45.20
21807;DHT22;11065;50.786;7.840;2023-02-27T07:06:28;-1.70;45.20
21807;DHT22;11065;50.786;7.840;2023-02-27T07:09:16;-1.70;45.20
21807;DHT22;11065;50.786;7.840;2023-02-27T07:11:44;-1.70;45.20
21807;DHT22;11065;50.786;7.840;2023-02-27T07:14:12;-1.70;45.20
21807;DHT22;11065;50.786;7.840;2023-02-27T07:16:42;-1.70;45.30
21807;DHT22;11065;50.786;7.840;2023-02-27T07:19:11;-1.70;45.30
21807;DHT22;11065;50.786;7.840;2023-02-27T07:21:40;-1.70;45.40
21807;DHT22;11065;50.786;7.840;2023-02-27T07:24:08;-1.70;45.30
21807;DHT22;11065;50.786;7.840;2023-02-27T07:26:37;-1.70;45.40
21807;DHT22;11065;50.786;7.840;2023-02-27T07:29:05;-1.60;45.40
21807;DHT22;11065;50.786;7.840;2023-02-27T07:31:33;-1.60;45.50
21807;DHT22;11065;50.786;7.840;2023-02-27T07:34:01;-1.60;45.60
21807;DHT22;11065;50.786;7.840;2023-02-27T07:36:29;-1.60;45.50
21807;DHT22;11065;50.786;7.840;2023-02-27T07:38:59;-1.60;45.50
21807;DHT22;11065;50.786;7.840;2023-02-27T07:41:29;-1.50;45.60
21807;DHT22;11065;50.786;7.840;2023-02-27T07:44:00;-1.50;45.70
21807;DHT22;11065;50.786;7.840;2023-02-27T07:46:29;-1.50;45.70
21807;DHT22;11065;50.786;7.840;2023-02-27T07:48:57;-1.50;45.80
21807;DHT22;11065;50.786;7.840;2023-02-27T07:51:25;-1.50;45.80
21807;DHT22;11065;50.786;7.840;2023-02-27T07:53:55;-1.50;45.80
21807;DHT22;11065;50.786;7.840;2023-02-27T07:56:25;-1.50;45.80
21807;DHT22;11065;50.786;7.840;2023-02-27T07:58:54;-1.50;46.00
21807;DHT22;11065;50.786;7.840;2023-02-27T08:01:21;-1.50;46.00
21807;DHT22;11065;50.786;7.840;2023-02-27T08:03:50;-1.50;46.20
21807;DHT22;11065;50.786;7.840;2023-02-27T08:06:18;-1.40;46.20
21807;DHT22;11065;50.786;7.840;2023-02-27T08:08:46;-1.40;46.40
21807;DHT22;11065;50.786;7.840;2023-02-27T08:11:14;-1.30;46.30
21807;DHT22;11065;50.786;7.840;2023-02-27T08:13:45;-1.30;46.30
21807;DHT22;11065;50.786;7.840;2023-02-27T08:16:27;-1.30;46.30
21807;DHT22;11065;50.786;7.840;2023-02-27T08:18:57;-1.20;46.40
21807;DHT22;11065;50.786;7.840;2023-02-27T08:21:26;-1.20;46.40
21807;DHT22;11065;50.786;7.840;2023-02-27T08:23:55;-1.10;46.40
21807;DHT22;11065;50.786;7.840;2023-02-27T08:26:23;-1.10;46.90
21807;DHT22;11065;50.786;7.840;2023-02-27T08:28:53;-1.00;46.80
21807;DHT22;11065;50.786;7.840;2023-02-27T08:31:21;-0.90;46.80
21807;DHT22;11065;50.786;7.840;2023-02-27T08:33:50;-0.90;47.10
21807;DHT22;11065;50.786;7.840;2023-02-27T08:36:33;-0.80;46.90
21807;DHT22;11065;50.786;7.840;2023-02-27T08:39:01;-0.70;46.90
21807;DHT22;11065;50.786;7.840;2023-02-27T08:41:30;-0.60;47.00
21807;DHT22;11065;50.786;7.840;2023-02-27T08:43:59;-0.60;46.90
21807;DHT22;11065;50.786;7.840;2023-02-27T08:46:27;-0.50;47.00
21807;DHT22;11065;50.786;7.840;2023-02-27T08:48:55;-0.40;47.00
21807;DHT22;11065;50.786;7.840;2023-02-27T08:51:23;-0.30;47.00
21807;DHT22;11065;50.786;7.840;2023-02-27T08:53:52;-0.20;47.20
21807;DHT22;11065;50.786;7.840;2023-02-27T08:56:21;-0.10;47.20
21807;DHT22;11065;50.786;7.840;2023-02-27T08:58:51;0.10;47.60
21807;DHT22;11065;50.786;7.840;2023-02-27T09:01:21;0.40;49.00
21807;DHT22;11065;50.786;7.840;2023-02-27T09:03:49;1.20;49.90
21807;DHT22;11065;50.786;7.840;2023-02-27T09:06:17;2.20;51.40
21807;DHT22;11065;50.786;7.840;2023-02-27T09:08:46;3.50;52.80
21807;DHT22;11065;50.786;7.840;2023-02-27T09:11:14;5.00;53.20
21807;DHT22;11065;50.786;7.840;2023-02-27T09:13:42;6.60;53.10
21807;DHT22;11065;50.786;7.840;2023-02-27T09:16:11;8.20;53.30
21807;DHT22;11065;50.786;7.840;2023-02-27T09:18:40;9.80;53.10
21807;DHT22;11065;50.786;7.840;2023-02-27T09:21:08;11.40;52.10
21807;DHT22;11065;50.786;7.840;2023-02-27T09:23:36;12.90;51.00
21807;DHT22;11065;50.786;7.840;2023-02-27T09:26:05;14.20;49.70
21807;DHT22;11065;50.786;7.840;2023-02-27T09:28:34;15.50;48.20
21807;DHT22;11065;50.786;7.840;2023-02-27T09:31:03;16.60;47.10
21807;DHT22;11065;50.786;7.840;2023-02-27T09:33:33;17.70;46.30
21807;DHT22;11065;50.786;7.840;2023-02-27T09:36:03;18.70;45.50
21807;DHT22;11065;50.786;7.840;2023-02-27T09:38:33;19.60;44.50
21807;DHT22;11065;50.786;7.840;2023-02-27T09:41:02;20.50;43.60
21807;DHT22;11065;50.786;7.840;2023-02-27T09:43:37;21.30;42.70
21807;DHT22;11065;50.786;7.840;2023-02-27T09:46:09;22.00;40.50
21807;DHT22;11065;50.786;7.840;2023-02-27T09:48:44;22.60;39.80
21807;DHT22;11065;50.786;7.840;2023-02-27T09:51:15;23.10;38.80
21807;DHT22;11065;50.786;7.840;2023-02-27T09:53:45;23.40;37.60
21807;DHT22;11065;50.786;7.840;2023-02-27T09:56:18;23.70;37.60
21807;DHT22;11065;50.786;7.840;2023-02-27T09:58:52;23.90;36.50
21807;DHT22;11065;50.786;7.840;2023-02-27T10:01:26;24.00;35.10
21807;DHT22;11065;50.786;7.840;2023-02-27T10:04:27;23.80;34.20
21807;DHT22;11065;50.786;7.840;2023-02-27T10:07:05;23.60;32.90
21807;DHT22;11065;50.786;7.840;2023-02-27T10:09:41;23.50;33.90
21807;DHT22;11065;50.786;7.840;2023-02-27T10:12:22;23.70;34.60
21807;DHT22;11065;50.786;7.840;2023-02-27T10:14:56;23.90;34.10
21807;DHT22;11065;50.786;7.840;2023-02-27T10:17:28;24.30;34.30
21807;DHT22;11065;50.786;7.840;2023-02-27T10:20:01;24.50;33.90
21807;DHT22;11065;50.786;7.840;2023-02-27T10:22:35;24.70;32.80
21807;DHT22;11065;50.786;7.840;2023-02-27T10:25:27;24.50;31.50
21807;DHT22;11065;50.786;7.840;2023-02-27T10:28:07;24.10;31.30
21807;DHT22;11065;50.786;7.840;2023-02-27T10:30:38;23.90;31.30
21807;DHT22;11065;50.786;7.840;2023-02-27T10:33:09;23.90;32.20
21807;DHT22;11065;50.786;7.840;2023-02-27T10:35:39;24.00;31.90
21807;DHT22;11065;50.786;7.840;2023-02-27T10:38:15;24.30;32.60
21807;DHT22;11065;50.786;7.840;2023-02-27T10:40:45;24.70;32.10
21807;DHT22;11065;50.786;7.840;2023-02-27T10:43:16;25.10;32.40
21807;DHT22;11065;50.786;7.840;2023-02-27T10:45:45;25.40;31.60
21807;DHT22;11065;50.786;7.840;2023-02-27T10:48:13;25.70;31.50
21807;DHT22;11065;50.786;7.840;2023-02-27T10:50:43;26.00;31.40
21807;DHT22;11065;50.786;7.840;2023-02-27T10:53:20;26.40;31.30
21807;DHT22;11065;50.786;7.840;2023-02-27T10:55:57;26.70;29.80
21807;DHT22;11065;50.786;7.840;2023-02-27T10:58:29;26.90;29.70
21807;DHT22;11065;50.786;7.840;2023-02-27T11:01:02;27.20;30.50
21807;DHT22;11065;50.786;7.840;2023-02-27T11:03:32;27.40;30.40
21807;DHT22;11065;50.786;7.840;2023-02-27T11:06:04;27.80;30.10
21807;DHT22;11065;50.786;7.840;2023-02-27T11:08:34;28.10;29.80
21807;DHT22;11065;50.786;7.840;2023-02-27T11:11:04;28.40;29.80
21807;DHT22;11065;50.786;7.840;2023-02-27T11:13:33;28.70;29.50
21807;DHT22;11065;50.786;7.840;2023-02-27T11:16:09;28.90;29.00
21807;DHT22;11065;50.786;7.840;2023-02-27T11:18:38;29.00;28.50
21807;DHT22;11065;50.786;7.840;2023-02-27T11:21:16;29.10;28.80
21807;DHT22;11065;50.786;7.840;2023-02-27T11:23:56;29.10;27.70
21807;DHT22;11065;50.786;7.840;2023-02-27T11:26:28;29.10;27.60
21807;DHT22;11065;50.786;7.840;2023-02-27T11:29:11;29.10;27.60
21807;DHT22;11065;50.786;7.840;2023-02-27T11:31:46;28.70;26.30
21807;DHT22;11065;50.786;7.840;2023-02-27T11:34:19;28.30;26.20
21807;DHT22;11065;50.786;7.840;2023-02-27T11:36:51;27.70;26.20
21807;DHT22;11065;50.786;7.840;2023-02-27T11:39:25;27.30;26.20
21807;DHT22;11065;50.786;7.840;2023-02-27T11:41:55;26.70;26.10
21807;DHT22;11065;50.786;7.840;2023-02-27T11:44:25;26.30;26.30
21807;DHT22;11065;50.786;7.840;2023-02-27T11:47:18;26.10;26.70
21807;DHT22;11065;50.786;7.840;2023-02-27T11:50:11;26.00;26.80
21807;DHT22;11065;50.786;7.840;2023-02-27T11:52:49;26.00;26.30
21807;DHT22;11065;50.786;7.840;2023-02-27T11:55:22;26.00;27.00
21807;DHT22;11065;50.786;7.840;2023-02-27T11:57:58;26.00;26.80
21807;DHT22;11065;50.786;7.840;2023-02-27T12:00:30;26.00;26.80
21807;DHT22;11065;50.786;7.840;2023-02-27T12:03:04;26.10;26.80
21807;DHT22;11065;50.786;7.840;2023-02-27T12:05:38;26.20;26.80
21807;DHT22;11065;50.786;7.840;2023-02-27T12:08:13;26.30;26.80
21807;DHT22;11065;50.786;7.840;2023-02-27T12:10:49;26.50;26.90
21807;DHT22;11065;50.786;7.840;2023-02-27T12:13:23;26.70;26.40
21807;DHT22;11065;50.786;7.840;2023-02-27T12:15:55;26.80;26.70
21807;DHT22;11065;50.786;7.840;2023-02-27T12:18:29;26.80;26.30
21807;DHT22;11065;50.786;7.840;2023-02-27T12:21:00;26.80;26.00
21807;DHT22;11065;50.786;7.840;2023-02-27T12:23:34;26.80;26.00
21807;DHT22;11065;50.786;7.840;2023-02-27T12:26:11;26.60;25.60
21807;DHT22;11065;50.786;7.840;2023-02-27T12:28:51;26.40;25.40
21807;DHT22;11065;50.786;7.840;2023-02-27T12:31:34;26.20;25.30
21807;DHT22;11065;50.786;7.840;2023-02-27T12:34:16;26.20;25.30
21807;DHT22;11065;50.786;7.840;2023-02-27T12:36:47;26.00;25.30
21807;DHT22;11065;50.786;7.840;2023-02-27T12:39:18;26.00;25.80
21807;DHT22;11065;50.786;7.840;2023-02-27T12:42:09;25.90;25.50
21807;DHT22;11065;50.786;7.840;2023-02-27T12:44:57;25.80;25.10
21807;DHT22;11065;50.786;7.840;2023-02-27T12:47:35;25.60;24.70
21807;DHT22;11065;50.786;7.840;2023-02-27T12:50:11;25.30;24.90
21807;DHT22;11065;50.786;7.840;2023-02-27T12:52:52;25.10;25.00
21807;DHT22;11065;50.786;7.840;2023-02-27T12:55:26;24.80;24.60
21807;DHT22;11065;50.786;7.840;2023-02-27T12:58:20;24.50;24.70
21807;DHT22;11065;50.786;7.840;2023-02-27T13:00:54;24.00;24.40
21807;DHT22;11065;50.786;7.840;2023-02-27T13:03:31;23.50;24.50
21807;DHT22;11065;50.786;7.840;2023-02-27T13:06:05;23.00;24.60
21807;DHT22;11065;50.786;7.840;2023-02-27T13:08:51;22.70;24.90
21807;DHT22;11065;50.786;7.840;2023-02-27T13:11:31;22.50;25.10
21807;DHT22;11065;50.786;7.840;2023-02-27T13:14:10;22.40;25.00
21807;DHT22;11065;50.786;7.840;2023-02-27T13:16:42;22.00;24.80
21807;DHT22;11065;50.786;7.840;2023-02-27T13:19:14;21.60;24.70
21807;DHT22;11065;50.786;7.840;2023-02-27T13:21:47;21.10;24.60
21807;DHT22;11065;50.786;7.840;2023-02-27T13:24:25;20.50;25.00
21807;DHT22;11065;50.786;7.840;2023-02-27T13:26:58;19.90;24.70
21807;DHT22;11065;50.786;7.840;2023-02-27T13:29:39;19.40;25.00
21807;DHT22;11065;50.786;7.840;2023-02-27T13:32:20;19.10;25.50
21807;DHT22;11065;50.786;7.840;2023-02-27T13:35:16;19.10;25.90
21807;DHT22;11065;50.786;7.840;2023-02-27T13:37:53;19.20;26.20
21807;DHT22;11065;50.786;7.840;2023-02-27T13:40:37;19.30;26.00
21807;DHT22;11065;50.786;7.840;2023-02-27T13:43:28;19.40;26.00
21807;DHT22;11065;50.786;7.840;2023-02-27T13:46:22;19.50;26.20
21807;DHT22;11065;50.786;7.840;2023-02-27T13:48:50;19.70;26.30
21807;DHT22;11065;50.786;7.840;2023-02-27T13:51:44;19.90;26.40
21807;DHT22;11065;50.786;7.840;2023-02-27T13:57:22;20.30;26.30
21807;DHT22;11065;50.786;7.840;2023-02-27T14:00:02;20.50;26.20
21807;DHT22;11065;50.786;7.840;2023-02-27T14:02:49;20.60;26.10
21807;DHT22;11065;50.786;7.840;2023-02-27T14:05:29;20.80;26.30
21807;DHT22;11065;50.786;7.840;2023-02-27T14:08:07;20.90;26.10
21807;DHT22;11065;50.786;7.840;2023-02-27T14:10:37;20.70;25.50
21807;DHT22;11065;50.786;7.840;2023-02-27T14:16:53;20.10;25.10
21807;DHT22;11065;50.786;7.840;2023-02-27T14:25:31;18.80;25.60
21807;DHT22;11065;50.786;7.840;2023-02-27T14:28:01;18.70;25.90
21807;DHT22;11065;50.786;7.840;2023-02-27T14:30:37;18.70;26.00
21807;DHT22;11065;50.786;7.840;2023-02-27T14:33:15;18.80;26.10
21807;DHT22;11065;50.786;7.840;2023-02-27T14:36:08;18.90;26.10
21807;DHT22;11065;50.786;7.840;2023-02-27T14:38:37;19.10;26.30
21807;DHT22;11065;50.786;7.840;2023-02-27T14:41:14;19.20;26.30
21807;DHT22;11065;50.786;7.840;2023-02-27T14:43:45;19.40;26.20
21807;DHT22;11065;50.786;7.840;2023-02-27T14:46:24;19.40;26.00
21807;DHT22;11065;50.786;7.840;2023-02-27T14:48:56;19.30;25.70
21807;DHT22;11065;50.786;7.840;2023-02-27T14:51:25;19.20;25.70
21807;DHT22;11065;50.786;7.840;2023-02-27T14:54:02;19.10;25.80
21807;DHT22;11065;50.786;7.840;2023-02-27T14:56:31;18.90;25.70
21807;DHT22;11065;50.786;7.840;2023-02-27T14:59:00;18.60;25.70
21807;DHT22;11065;50.786;7.840;2023-02-27T15:01:34;18.50;25.80
21807;DHT22;11065;50.786;7.840;2023-02-27T15:04:05;18.30;25.70
21807;DHT22;11065;50.786;7.840;2023-02-27T15:06:39;18.00;25.50
21807;DHT22;11065;50.786;7.840;2023-02-27T15:09:19;17.70;25.40
21807;DHT22;11065;50.786;7.840;2023-02-27T15:11:48;17.20;25.50
21807;DHT22;11065;50.786;7.840;2023-02-27T15:14:32;16.80;25.50
21807;DHT22;11065;50.786;7.840;2023-02-27T15:17:01;16.50;25.50
21807;DHT22;11065;50.786;7.840;2023-02-27T15:19:30;16.10;25.70
21807;DHT22;11065;50.786;7.840;2023-02-27T15:22:00;15.80;25.70
21807;DHT22;11065;50.786;7.840;2023-02-27T15:24:33;15.60;25.90
21807;DHT22;11065;50.786;7.840;2023-02-27T15:27:17;15.30;26.00
21807;DHT22;11065;50.786;7.840;2023-02-27T15:29:49;15.10;26.20
21807;DHT22;11065;50.786;7.840;2023-02-27T15:32:24;14.80;26.20
21807;DHT22;11065;50.786;7.840;2023-02-27T15:34:55;14.60;26.30
21807;DHT22;11065;50.786;7.840;2023-02-27T15:37:26;14.40;26.30
21807;DHT22;11065;50.786;7.840;2023-02-27T15:39:56;14.10;26.40
21807;DHT22;11065;50.786;7.840;2023-02-27T15:42:26;13.90;26.50
21807;DHT22;11065;50.786;7.840;2023-02-27T15:44:55;13.80;26.60
21807;DHT22;11065;50.786;7.840;2023-02-27T15:47:27;13.70;26.80
21807;DHT22;11065;50.786;7.840;2023-02-27T15:50:00;13.40;26.80
21807;DHT22;11065;50.786;7.840;2023-02-27T15:52:32;13.30;27.00
21807;DHT22;11065;50.786;7.840;2023-02-27T15:55:12;13.10;27.00
21807;DHT22;11065;50.786;7.840;2023-02-27T15:57:42;12.90;27.00
21807;DHT22;11065;50.786;7.840;2023-02-27T16:00:27;12.80;27.10
21807;DHT22;11065;50.786;7.840;2023-02-27T16:02:57;12.60;27.10
21807;DHT22;11065;50.786;7.840;2023-02-27T16:05:33;12.50;27.20
21807;DHT22;11065;50.786;7.840;2023-02-27T16:08:02;12.40;27.30
21807;DHT22;11065;50.786;7.840;2023-02-27T16:10:36;12.20;27.30
21807;DHT22;11065;50.786;7.840;2023-02-27T16:13:27;12.10;27.40
21807;DHT22;11065;50.786;7.840;2023-02-27T16:15:59;12.00;27.60
21807;DHT22;11065;50.786;7.840;2023-02-27T16:18:30;11.90;27.60
21807;DHT22;11065;50.786;7.840;2023-02-27T16:21:12;11.80;27.70
21807;DHT22;11065;50.786;7.840;2023-02-27T16:23:41;11.70;27.90
21807;DHT22;11065;50.786;7.840;2023-02-27T16:26:34;11.60;27.80
21807;DHT22;11065;50.786;7.840;2023-02-27T16:29:04;11.50;28.10
21807;DHT22;11065;50.786;7.840;2023-02-27T16:31:35;11.40;27.90
21807;DHT22;11065;50.786;7.840;2023-02-27T16:34:14;11.30;28.00
21807;DHT22;11065;50.786;7.840;2023-02-27T16:36:52;11.20;28.20
21807;DHT22;11065;50.786;7.840;2023-02-27T16:39:22;11.10;28.20
21807;DHT22;11065;50.786;7.840;2023-02-27T16:41:51;11.00;28.20
21807;DHT22;11065;50.786;7.840;2023-02-27T16:44:20;10.90;28.20
21807;DHT22;11065;50.786;7.840;2023-02-27T16:46:50;10.80;28.30
21807;DHT22;11065;50.786;7.840;2023-02-27T16:49:20;10.70;28.30
21807;DHT22;11065;50.786;7.840;2023-02-27T16:51:48;10.50;28.60
21807;DHT22;11065;50.786;7.840;2023-02-27T16:54:18;10.40;28.60
21807;DHT22;11065;50.786;7.840;2023-02-27T16:56:47;10.40;28.60
21807;DHT22;11065;50.786;7.840;2023-02-27T16:59:27;10.30;28.70
21807;DHT22;11065;50.786;7.840;2023-02-27T17:01:55;10.20;28.80
21807;DHT22;11065;50.786;7.840;2023-02-27T17:04:24;10.10;28.70
21807;DHT22;11065;50.786;7.840;2023-02-27T17:06:53;10.00;28.80
21807;DHT22;11065;50.786;7.840;2023-02-27T17:09:23;9.90;28.90
21807;DHT22;11065;50.786;7.840;2023-02-27T17:11:53;9.80;29.30
21807;DHT22;11065;50.786;7.840;2023-02-27T17:14:22;9.70;28.90
21807;DHT22;11065;50.786;7.840;2023-02-27T17:16:50;9.60;29.00
21807;DHT22;11065;50.786;7.840;2023-02-27T17:19:18;9.50;29.00
21807;DHT22;11065;50.786;7.840;2023-02-27T17:21:48;9.40;29.10
21807;DHT22;11065;50.786;7.840;2023-02-27T17:24:16;9.40;29.20
21807;DHT22;11065;50.786;7.840;2023-02-27T17:26:46;9.30;29.30
21807;DHT22;11065;50.786;7.840;2023-02-27T17:29:14;9.30;29.40
21807;DHT22;11065;50.786;7.840;2023-02-27T17:31:42;9.20;29.40
21807;DHT22;11065;50.786;7.840;2023-02-27T17:34:11;9.20;29.50
21807;DHT22;11065;50.786;7.840;2023-02-27T17:36:41;9.10;29.50
21807;DHT22;11065;50.786;7.840;2023-02-27T17:39:11;9.00;29.60
21807;DHT22;11065;50.786;7.840;2023-02-27T17:41:42;9.00;29.70
21807;DHT22;11065;50.786;7.840;2023-02-27T17:44:11;8.90;29.60
21807;DHT22;11065;50.786;7.840;2023-02-27T17:46:40;8.90;29.70
21807;DHT22;11065;50.786;7.840;2023-02-27T17:49:08;8.80;29.80